Time;durP1;ratioP1;P1;durP2;ratioP2;P2;SDS_P1;SDS_P2;PMS_P1;PMS_P2;Temp;Humidity;BMP_temperature;BMP_pressure;BME280_temperature;BME280_humidity;BME280_pressure;Samples;Min_cycle;Max_cycle;Signal;HPM_P1;HPM_P2
2022/01/21 00:01:30;;;;;;;21.02;1.38;;;-0.40;99.90;;;;;;5091085;28;20040;-53
2022/01/21 00:03:56;;;;;;;12.18;0.90;;;-0.30;99.90;;;;;;5090729;28;20051;-54
2022/01/21 00:06:21;;;;;;;17.38;0.88;;;-0.30;99.90;;;;;;5090615;28;20039;-53
2022/01/21 00:08:48;;;;;;;17.13;1.55;;;-0.20;99.90;;;;;;5072852;28;20417;-54
2022/01/21 00:11:15;;;;;;;15.35;1.58;;;-0.20;99.90;;;;;;5072515;28;20409;-51
2022/01/21 00:13:42;;;;;;;16.25;1.40;;;-0.20;99.90;;;;;;5078693;28;20040;-53
2022/01/21 00:16:22;;;;;;;7.15;1.02;;;-0.20;99.90;;;;;;5110327;28;20063;-53
2022/01/21 00:19:05;;;;;;;15.77;1.58;;;-0.20;99.90;;;;;;5111298;28;20202;-53
2022/01/21 00:32:30;;;;;;;16.50;1.63;;;-0.20;99.90;;;;;;5110958;28;20040;-52
2022/01/21 00:34:56;;;;;;;28.20;3.25;;;-0.10;99.90;;;;;;5111059;28;20051;-52
2022/01/21 00:37:22;;;;;;;23.10;2.42;;;-0.10;99.90;;;;;;5090626;28;20064;-52
2022/01/21 00:39:54;;;;;;;31.75;1.80;;;0.00;99.90;;;;;;5090434;28;20059;-51
2022/01/21 00:44:53;;;;;;;17.17;2.17;;;0.00;99.90;;;;;;5090211;28;20552;-53
2022/01/21 00:47:19;;;;;;;18.50;4.22;;;0.10;99.90;;;;;;5090074;28;20054;-50
2022/01/21 00:49:45;;;;;;;17.95;2.95;;;0.10;99.90;;;;;;5090357;28;20040;-54
2022/01/21 00:52:11;;;;;;;20.85;1.92;;;0.10;99.90;;;;;;5090448;28;20044;-53
2022/01/21 00:54:37;;;;;;;20.17;2.83;;;0.20;99.90;;;;;;5072221;28;20093;-52
2022/01/21 00:57:03;;;;;;;22.88;2.25;;;0.80;99.90;;;;;;5090392;28;20051;-50
2022/01/21 00:59:29;;;;;;;25.40;2.15;;;0.30;99.90;;;;;;5090227;28;20044;-53
2022/01/21 01:01:55;;;;;;;28.98;2.28;;;0.30;99.90;;;;;;5090464;28;20546;-53
2022/01/21 01:04:21;;;;;;;27.17;3.65;;;0.40;99.90;;;;;;5089903;28;20470;-52
2022/01/21 01:06:47;;;;;;;18.98;2.15;;;0.40;99.90;;;;;;5090486;28;20071;-52
2022/01/21 01:09:12;;;;;;;16.92;1.52;;;0.50;99.90;;;;;;5071911;28;20040;-52
2022/01/21 01:20:00;;;;;;;18.02;1.27;;;0.70;99.90;;;;;;5090516;28;20117;-53
2022/01/21 01:22:40;;;;;;;13.60;1.27;;;0.70;99.90;;;;;;5090118;28;20040;-53
2022/01/21 01:27:51;;;;;;;18.73;2.05;;;0.60;99.90;;;;;;5090292;28;20510;-50
2022/01/21 01:30:21;;;;;;;15.55;0.90;;;0.50;99.90;;;;;;5093376;28;20078;-54
2022/01/21 01:32:49;;;;;;;22.05;1.05;;;0.50;99.90;;;;;;5094081;28;20051;-53
2022/01/21 01:35:17;;;;;;;14.07;0.55;;;0.60;99.90;;;;;;5093771;28;20052;-53
2022/01/21 01:40:24;;;;;;;14.70;1.88;;;0.70;99.90;;;;;;5093921;28;20071;-53
2022/01/21 01:50:47;;;;;;;10.60;0.95;;;0.70;99.90;;;;;;5093763;28;20044;-52
2022/01/21 01:53:15;;;;;;;16.08;0.93;;;0.70;99.90;;;;;;5093236;28;21081;-53
2022/01/21 01:55:41;;;;;;;19.05;1.58;;;0.70;99.90;;;;;;5093858;28;20086;-53
2022/01/21 01:58:07;;;;;;;18.55;1.15;;;0.60;99.90;;;;;;5093252;28;20076;-52
2022/01/21 02:00:33;;;;;;;14.82;0.85;;;0.50;99.90;;;;;;5093294;28;20127;-53
2022/01/21 02:03:06;;;;;;;11.38;0.75;;;0.40;99.90;;;;;;5075244;28;20055;-54
2022/01/21 02:05:31;;;;;;;6.18;0.75;;;0.60;99.90;;;;;;5093391;28;20040;-54
2022/01/21 02:07:57;;;;;;;18.48;0.90;;;0.30;99.90;;;;;;5093299;28;20047;-54
2022/01/21 02:10:23;;;;;;;21.40;1.02;;;0.30;99.90;;;;;;5093196;28;20073;-53
2022/01/21 02:12:50;;;;;;;8.98;1.20;;;0.30;99.90;;;;;;5092336;28;20093;-54
2022/01/21 02:15:16;;;;;;;15.23;1.02;;;0.30;99.90;;;;;;5101129;28;20047;-52
2022/01/21 02:22:52;;;;;;;14.25;0.90;;;0.10;99.90;;;;;;5112353;28;20050;-53
2022/01/21 02:25:18;;;;;;;15.57;0.65;;;0.00;99.90;;;;;;5101894;28;20031;-52
2022/01/21 02:28:02;;;;;;;17.17;0.90;;;0.40;99.90;;;;;;5095218;28;20161;-52
2022/01/21 02:30:28;;;;;;;18.75;1.15;;;0.10;99.90;;;;;;5113349;28;20118;-52
2022/01/21 02:32:56;;;;;;;15.20;1.75;;;0.10;99.90;;;;;;5112320;28;20122;-51
2022/01/21 02:35:24;;;;;;;20.10;1.67;;;0.20;99.90;;;;;;5101502;28;20039;-52
2022/01/21 02:37:50;;;;;;;17.50;1.20;;;0.30;99.90;;;;;;5107602;28;20093;-52
2022/01/21 02:40:17;;;;;;;21.20;2.05;;;0.40;99.90;;;;;;5092480;28;20097;-53
2022/01/21 02:42:43;;;;;;;21.33;1.83;;;0.40;99.90;;;;;;5092851;28;20048;-53
2022/01/21 02:45:13;;;;;;;20.48;1.58;;;0.40;99.90;;;;;;5092540;28;20040;-52
2022/01/21 02:47:39;;;;;;;13.73;0.70;;;0.40;99.90;;;;;;5092558;28;20044;-52
2022/01/21 02:50:05;;;;;;;15.38;1.10;;;0.30;99.90;;;;;;5092673;28;20032;-52
2022/01/21 02:52:40;;;;;;;12.82;0.68;;;0.20;99.90;;;;;;5074398;28;20044;-52
2022/01/21 02:55:07;;;;;;;11.98;1.52;;;0.20;99.90;;;;;;5101692;28;20040;-52
2022/01/21 02:57:33;;;;;;;11.05;0.60;;;0.20;99.90;;;;;;5092285;28;20040;-51
2022/01/21 02:59:58;;;;;;;10.00;0.98;;;0.10;99.90;;;;;;5092394;28;20135;-51
2022/01/21 03:02:24;;;;;;;11.25;0.90;;;0.10;99.90;;;;;;5092105;28;20040;-53
2022/01/21 03:05:02;;;;;;;9.55;0.82;;;0.20;99.90;;;;;;5092380;28;20097;-50
2022/01/21 03:07:28;;;;;;;9.43;0.40;;;0.30;99.90;;;;;;5092202;28;20051;-50
2022/01/21 03:09:54;;;;;;;12.35;0.95;;;0.40;99.90;;;;;;5091965;28;20038;-53
2022/01/21 03:12:21;;;;;;;7.60;0.85;;;0.50;99.90;;;;;;5091747;28;20036;-50
2022/01/21 03:14:47;;;;;;;14.50;1.30;;;0.50;99.90;;;;;;5091845;28;20048;-53
2022/01/21 03:17:14;;;;;;;16.48;1.30;;;0.60;99.90;;;;;;5091781;28;20094;-52
2022/01/21 03:19:39;;;;;;;10.45;0.73;;;0.50;99.90;;;;;;5091622;28;20071;-52
2022/01/21 03:22:05;;;;;;;9.38;0.47;;;0.60;99.90;;;;;;5092191;28;20067;-50
2022/01/21 03:24:31;;;;;;;13.13;0.55;;;0.50;99.90;;;;;;5091655;28;20036;-53
2022/01/21 03:26:57;;;;;;;11.75;0.85;;;0.60;99.90;;;;;;5073588;28;20139;-52
2022/01/21 03:29:23;;;;;;;14.70;0.80;;;0.60;99.90;;;;;;5091833;28;20346;-53
2022/01/21 03:31:49;;;;;;;13.05;1.05;;;0.60;99.90;;;;;;5091692;28;20071;-51
2022/01/21 03:34:15;;;;;;;14.48;0.80;;;0.70;99.90;;;;;;5091863;28;20039;-51
2022/01/21 03:36:41;;;;;;;5.30;0.40;;;0.70;99.90;;;;;;5092244;28;20040;-53
2022/01/21 03:39:07;;;;;;;10.93;0.80;;;0.80;99.90;;;;;;5089788;28;20528;-49
2022/01/21 03:41:33;;;;;;;13.88;0.88;;;0.80;99.90;;;;;;5091724;28;20044;-49
2022/01/21 03:43:58;;;;;;;6.57;0.30;;;0.90;99.90;;;;;;5091685;28;20121;-52
2022/01/21 03:46:24;;;;;;;11.45;0.70;;;0.90;99.90;;;;;;5091661;28;20051;-48
2022/01/21 03:48:51;;;;;;;9.15;0.40;;;0.90;99.90;;;;;;5091169;28;20093;-51
2022/01/21 03:51:18;;;;;;;9.98;0.88;;;1.00;99.90;;;;;;5091207;28;20109;-52
2022/01/21 03:53:46;;;;;;;12.73;0.80;;;1.00;99.90;;;;;;5091410;28;20048;-50
2022/01/21 03:56:15;;;;;;;11.65;1.02;;;1.00;99.90;;;;;;5091138;28;20100;-52
2022/01/21 03:58:42;;;;;;;15.18;0.60;;;0.90;99.90;;;;;;5091011;28;20055;-52
2022/01/21 04:01:07;;;;;;;18.23;0.47;;;0.90;99.90;;;;;;5091102;28;20032;-52
2022/01/21 04:03:34;;;;;;;14.18;0.63;;;0.80;99.90;;;;;;5090717;28;20096;-50
2022/01/21 04:06:00;;;;;;;12.75;0.70;;;0.70;99.90;;;;;;5072786;28;20376;-52
2022/01/21 04:08:25;;;;;;;15.60;0.93;;;0.60;99.90;;;;;;5090863;28;20051;-51
2022/01/21 04:10:51;;;;;;;8.02;0.63;;;0.50;99.90;;;;;;5072493;28;20097;-51
2022/01/21 04:13:19;;;;;;;6.93;0.50;;;0.50;99.90;;;;;;5090784;28;20035;-52
2022/01/21 04:15:51;;;;;;;11.50;0.40;;;0.40;99.90;;;;;;5072085;28;20131;-53
2022/01/21 04:18:18;;;;;;;14.93;0.50;;;0.30;99.90;;;;;;5090986;28;20056;-53
2022/01/21 04:20:46;;;;;;;15.27;0.40;;;0.30;99.90;;;;;;5090314;28;20485;-50
2022/01/21 04:23:13;;;;;;;9.30;0.45;;;0.20;99.90;;;;;;5090689;28;20048;-51
2022/01/21 04:25:39;;;;;;;11.18;0.43;;;0.10;99.90;;;;;;5090214;28;20032;-50
2022/01/21 04:28:05;;;;;;;13.20;0.47;;;0.00;99.90;;;;;;5090628;28;20044;-52
2022/01/21 04:30:32;;;;;;;9.93;1.40;;;0.10;99.90;;;;;;5090484;28;20032;-51
2022/01/21 04:32:58;;;;;;;4.75;0.60;;;0.20;99.90;;;;;;5090443;28;20040;-49
2022/01/21 04:35:23;;;;;;;10.55;0.40;;;0.30;99.90;;;;;;5090830;28;20384;-50
2022/01/21 04:37:55;;;;;;;4.13;0.40;;;0.30;99.90;;;;;;5088146;28;20556;-51
2022/01/21 04:40:25;;;;;;;8.50;0.30;;;1.10;99.90;;;;;;5090618;28;20056;-53
2022/01/21 04:48:19;;;;;;;8.63;0.90;;;0.20;99.90;;;;;;5090460;28;20055;-51
2022/01/21 04:50:57;;;;;;;10.52;0.50;;;0.10;99.90;;;;;;5089952;28;20397;-53
2022/01/21 04:53:25;;;;;;;11.20;0.30;;;0.00;99.90;;;;;;5090370;28;20039;-52
2022/01/21 04:55:51;;;;;;;9.57;0.40;;;-0.10;99.90;;;;;;5090179;28;20048;-51
2022/01/21 04:58:17;;;;;;;10.52;0.40;;;-0.10;99.90;;;;;;5090249;28;20501;-52
2022/01/21 05:00:46;;;;;;;5.13;0.20;;;-0.10;99.90;;;;;;5090278;28;20043;-50
2022/01/21 05:03:12;;;;;;;8.43;0.60;;;-0.20;99.90;;;;;;5092129;28;20093;-52
2022/01/21 05:05:39;;;;;;;9.48;0.50;;;-0.20;99.90;;;;;;5094496;28;20488;-51
2022/01/21 05:08:09;;;;;;;10.18;1.63;;;-0.20;99.90;;;;;;5094448;28;20123;-53
2022/01/21 05:10:36;;;;;;;8.80;0.30;;;-0.20;99.90;;;;;;5094407;28;20119;-51
2022/01/21 05:13:03;;;;;;;12.48;0.60;;;-0.10;99.90;;;;;;5094141;28;20113;-49
2022/01/21 05:15:44;;;;;;;12.75;0.55;;;0.10;99.90;;;;;;5094159;28;20492;-51
2022/01/21 05:18:10;;;;;;;11.55;0.75;;;0.20;99.90;;;;;;5076330;28;20051;-50
2022/01/21 05:20:35;;;;;;;12.15;1.17;;;0.20;99.90;;;;;;5093901;28;20405;-49
2022/01/21 05:23:01;;;;;;;17.95;0.90;;;0.10;99.90;;;;;;5094185;28;20052;-49
2022/01/21 05:25:27;;;;;;;12.88;0.70;;;0.10;99.90;;;;;;5093788;28;20135;-52
2022/01/21 05:27:55;;;;;;;9.82;0.43;;;0.10;99.90;;;;;;5094030;28;20048;-48
2022/01/21 05:30:20;;;;;;;10.93;0.77;;;0.10;99.90;;;;;;5093915;28;20394;-52
2022/01/21 05:32:46;;;;;;;9.20;0.57;;;0.20;99.90;;;;;;5092900;28;20100;-54
2022/01/21 05:35:13;;;;;;;13.70;0.47;;;0.70;99.90;;;;;;5093654;28;20044;-48
2022/01/21 05:37:39;;;;;;;15.13;0.68;;;0.20;99.90;;;;;;5086747;28;20169;-45
2022/01/21 05:40:08;;;;;;;7.82;0.80;;;0.30;99.90;;;;;;5077476;28;20485;-45
2022/01/21 05:42:35;;;;;;;17.00;1.15;;;0.30;99.90;;;;;;5079924;28;20482;-45
2022/01/21 05:47:29;;;;;;;16.60;1.15;;;0.10;99.90;;;;;;5077460;28;20910;-46
2022/01/21 05:49:55;;;;;;;13.45;0.88;;;0.00;99.90;;;;;;5079721;28;20107;-45
2022/01/21 05:52:29;;;;;;;23.73;1.17;;;0.00;99.90;;;;;;5078250;28;20497;-45
2022/01/21 05:54:54;;;;;;;18.17;1.23;;;0.00;99.90;;;;;;5078605;28;20498;-44
2022/01/21 05:57:20;;;;;;;21.38;1.40;;;-0.10;99.90;;;;;;5081866;28;20055;-42
2022/01/21 05:59:46;;;;;;;20.42;1.13;;;-0.10;99.90;;;;;;5078199;28;20047;-43
2022/01/21 06:02:12;;;;;;;16.10;1.15;;;-0.20;99.90;;;;;;5080555;28;20478;-43
2022/01/21 06:04:40;;;;;;;14.95;0.80;;;-0.30;99.90;;;;;;5078044;28;20040;-45
2022/01/21 06:07:06;;;;;;;15.60;1.10;;;-0.30;99.90;;;;;;5074619;28;20059;-45
2022/01/21 06:09:32;;;;;;;13.13;1.02;;;-0.30;99.90;;;;;;5076253;28;20036;-44
2022/01/21 06:11:58;;;;;;;9.45;0.47;;;-0.30;99.90;;;;;;5085088;28;20040;-51
2022/01/21 06:14:25;;;;;;;14.25;1.70;;;-0.30;99.90;;;;;;5092482;28;20098;-50
2022/01/21 06:16:51;;;;;;;17.15;1.88;;;-0.30;99.90;;;;;;5091537;28;20059;-49
2022/01/21 06:19:17;;;;;;;9.32;0.75;;;0.00;99.90;;;;;;5093307;28;20375;-47
2022/01/21 06:21:43;;;;;;;14.48;0.98;;;-0.20;99.90;;;;;;5093388;28;20036;-47
2022/01/21 06:24:09;;;;;;;22.95;2.30;;;-0.20;99.90;;;;;;5074947;28;20047;-47
2022/01/21 06:26:36;;;;;;;17.35;1.88;;;-0.10;99.90;;;;;;5093588;28;20044;-46
2022/01/21 06:29:03;;;;;;;10.15;0.73;;;0.00;99.90;;;;;;5093156;28;20166;-49
2022/01/21 06:31:29;;;;;;;11.32;0.70;;;1.20;99.90;;;;;;5091553;28;20044;-47
2022/01/21 06:33:54;;;;;;;12.95;0.57;;;0.00;99.90;;;;;;5092545;28;20043;-47
2022/01/21 06:36:20;;;;;;;22.45;1.83;;;1.00;99.90;;;;;;5074546;28;20088;-47
2022/01/21 06:38:46;;;;;;;18.80;2.30;;;0.10;99.90;;;;;;5090503;28;20047;-46
2022/01/21 06:41:12;;;;;;;10.82;1.15;;;0.10;99.90;;;;;;5092652;28;20048;-47
2022/01/21 06:43:38;;;;;;;19.08;0.95;;;0.20;99.90;;;;;;5092979;28;20066;-47
2022/01/21 06:46:04;;;;;;;13.95;0.65;;;0.20;99.90;;;;;;5092287;28;20044;-47
2022/01/21 06:48:29;;;;;;;16.13;0.70;;;0.30;99.90;;;;;;5093004;28;20079;-49
2022/01/21 06:50:55;;;;;;;13.13;0.80;;;0.50;99.90;;;;;;5092504;28;20067;-48
2022/01/21 06:53:21;;;;;;;16.15;0.88;;;2.00;99.90;;;;;;5057671;28;20292;-48
2022/01/21 06:55:47;;;;;;;16.98;1.52;;;0.70;99.90;;;;;;5092437;28;20044;-52
2022/01/21 06:58:13;;;;;;;14.68;1.50;;;0.20;99.90;;;;;;5091933;28;20367;-48
2022/01/21 07:00:39;;;;;;;15.32;2.30;;;0.20;99.90;;;;;;5092079;28;20036;-47
2022/01/21 07:03:04;;;;;;;12.73;0.80;;;0.10;99.90;;;;;;5091756;28;20044;-47
2022/01/21 07:05:30;;;;;;;13.40;1.10;;;0.20;99.90;;;;;;5073909;28;20044;-47
2022/01/21 07:07:57;;;;;;;13.75;0.85;;;0.20;99.90;;;;;;5092085;28;20058;-47
2022/01/21 07:10:24;;;;;;;11.43;0.70;;;0.00;99.90;;;;;;5091682;28;20478;-47
2022/01/21 07:12:50;;;;;;;14.60;0.98;;;0.20;99.90;;;;;;5091898;28;20039;-47
2022/01/21 07:15:17;;;;;;;13.35;0.50;;;0.20;99.90;;;;;;5091503;28;20047;-47
2022/01/21 07:17:43;;;;;;;15.02;1.75;;;0.30;99.90;;;;;;5091094;28;20056;-48
2022/01/21 07:20:10;;;;;;;9.43;1.20;;;0.30;99.90;;;;;;5091625;28;20132;-48
2022/01/21 07:22:36;;;;;;;10.25;0.80;;;0.30;99.90;;;;;;5073754;28;20087;-50
2022/01/21 07:25:03;;;;;;;15.35;1.20;;;0.20;99.90;;;;;;5091354;28;20051;-49
2022/01/21 07:27:28;;;;;;;22.92;1.77;;;0.30;99.90;;;;;;5072381;28;20127;-49
2022/01/21 07:29:54;;;;;;;16.30;0.80;;;0.30;99.90;;;;;;5073503;28;20111;-50
2022/01/21 07:32:20;;;;;;;14.18;0.80;;;0.30;99.90;;;;;;5088295;28;20056;-48
2022/01/21 07:34:46;;;;;;;15.43;0.88;;;0.30;99.90;;;;;;5081051;28;20139;-47
2022/01/21 07:37:11;;;;;;;17.50;2.22;;;0.30;99.90;;;;;;5080083;28;20040;-47
2022/01/21 07:39:37;;;;;;;19.10;0.95;;;4.00;99.90;;;;;;5074175;28;20426;-48
2022/01/21 07:42:03;;;;;;;9.40;0.70;;;0.30;99.90;;;;;;5071415;28;20040;-49
2022/01/21 07:44:29;;;;;;;16.77;0.95;;;0.30;99.90;;;;;;5071150;28;20041;-47
2022/01/21 07:46:55;;;;;;;16.25;0.90;;;0.30;99.90;;;;;;5071077;28;20055;-49
2022/01/21 07:49:20;;;;;;;14.07;0.70;;;0.30;99.90;;;;;;5070865;28;20040;-47
2022/01/21 07:51:46;;;;;;;12.70;0.82;;;0.40;99.90;;;;;;5070840;28;20658;-47
2022/01/21 07:54:12;;;;;;;17.20;1.20;;;0.40;99.90;;;;;;5071623;28;20042;-49
2022/01/21 07:56:38;;;;;;;18.83;0.93;;;0.40;99.90;;;;;;5081608;28;20037;-48
2022/01/21 07:59:11;;;;;;;13.77;1.27;;;0.40;99.90;;;;;;5079191;28;20033;-47
2022/01/21 08:01:37;;;;;;;19.92;1.60;;;0.30;99.90;;;;;;5082717;28;20036;-47
2022/01/21 08:04:04;;;;;;;16.85;1.35;;;0.30;99.90;;;;;;5082965;28;20406;-47
2022/01/21 08:06:30;;;;;;;14.45;1.33;;;0.30;99.90;;;;;;5079716;28;20040;-48
2022/01/21 08:08:57;;;;;;;18.17;3.00;;;0.30;99.90;;;;;;5075621;28;20123;-50
2022/01/21 08:11:23;;;;;;;20.10;1.35;;;0.30;99.90;;;;;;5070333;28;20420;-48
2022/01/21 08:13:49;;;;;;;16.85;1.45;;;0.30;99.90;;;;;;5070433;28;20037;-47
2022/01/21 08:16:15;;;;;;;12.57;1.80;;;0.30;99.90;;;;;;5051900;28;20379;-47
2022/01/21 08:18:41;;;;;;;20.98;2.80;;;0.40;99.90;;;;;;5070196;28;20114;-47
2022/01/21 08:21:07;;;;;;;15.30;1.42;;;0.40;99.90;;;;;;5070499;28;20056;-48
2022/01/21 08:23:33;;;;;;;17.77;1.50;;;0.40;99.90;;;;;;5070357;28;20460;-47
2022/01/21 08:25:59;;;;;;;18.77;2.58;;;0.50;99.90;;;;;;5070196;28;20072;-47
2022/01/21 08:28:25;;;;;;;23.17;4.50;;;0.50;99.90;;;;;;5069987;28;20044;-49
2022/01/21 08:30:51;;;;;;;23.98;1.17;;;0.60;99.90;;;;;;5070482;28;20047;-48
2022/01/21 08:33:17;;;;;;;19.23;1.00;;;0.60;99.90;;;;;;5069327;28;20040;-49
2022/01/21 08:35:42;;;;;;;18.10;1.50;;;0.70;99.90;;;;;;5070232;28;20123;-47
2022/01/21 08:38:08;;;;;;;20.40;2.40;;;0.70;99.90;;;;;;5075850;28;20125;-47
2022/01/21 08:40:34;;;;;;;23.10;3.53;;;0.80;99.90;;;;;;5089884;28;20058;-48
2022/01/21 08:43:00;;;;;;;17.65;2.17;;;0.80;99.90;;;;;;5090714;28;20071;-50
2022/01/21 08:45:26;;;;;;;16.80;1.58;;;0.90;99.90;;;;;;5089956;28;20082;-48
2022/01/21 08:47:52;;;;;;;16.88;1.67;;;0.90;99.90;;;;;;5072375;28;20405;-47
2022/01/21 08:50:20;;;;;;;20.23;1.23;;;1.00;99.90;;;;;;5090053;28;20093;-47
2022/01/21 08:52:47;;;;;;;19.42;1.65;;;1.20;99.90;;;;;;5090289;28;20074;-49
2022/01/21 08:55:18;;;;;;;20.88;2.78;;;1.40;99.90;;;;;;5090062;28;20065;-48
2022/01/21 08:57:46;;;;;;;17.23;2.90;;;1.60;99.90;;;;;;5090106;28;20055;-48
2022/01/21 09:00:14;;;;;;;17.90;1.75;;;1.80;99.90;;;;;;5090299;28;20032;-48
2022/01/21 09:02:40;;;;;;;19.48;1.95;;;1.90;99.90;;;;;;5090302;28;20383;-48
2022/01/21 09:05:06;;;;;;;25.33;3.28;;;2.00;99.90;;;;;;5090161;28;20060;-48
2022/01/21 09:07:31;;;;;;;18.80;2.42;;;2.00;99.90;;;;;;5090054;28;20077;-48
2022/01/21 09:09:57;;;;;;;19.65;1.52;;;2.00;99.90;;;;;;5090198;28;20040;-48
2022/01/21 09:12:23;;;;;;;29.75;3.22;;;2.10;99.90;;;;;;5089908;28;20089;-48
2022/01/21 09:14:49;;;;;;;23.05;2.55;;;2.10;99.90;;;;;;5090181;28;20047;-47
2022/01/21 09:17:16;;;;;;;14.30;1.77;;;2.20;99.90;;;;;;5089602;28;20164;-48
2022/01/21 09:19:42;;;;;;;28.73;2.53;;;2.20;99.90;;;;;;5090093;28;20048;-47
2022/01/21 09:22:07;;;;;;;19.98;2.85;;;2.30;99.90;;;;;;5090265;28;20036;-47
2022/01/21 09:24:34;;;;;;;18.58;2.53;;;2.80;99.90;;;;;;5089643;28;20075;-48
2022/01/21 09:27:01;;;;;;;26.33;3.83;;;2.30;99.90;;;;;;5090349;28;20048;-47
2022/01/21 09:29:27;;;;;;;21.33;2.53;;;2.40;99.90;;;;;;5089519;28;20085;-47
2022/01/21 09:31:53;;;;;;;20.52;1.83;;;2.40;99.90;;;;;;5090045;28;20040;-47
2022/01/21 09:34:19;;;;;;;18.42;2.28;;;2.40;99.90;;;;;;5090005;28;20180;-55
2022/01/21 09:36:45;;;;;;;15.35;2.00;;;2.40;99.90;;;;;;5071736;28;20031;-48
2022/01/21 09:39:12;;;;;;;15.88;1.95;;;2.40;99.90;;;;;;5087789;28;20104;-48
2022/01/21 09:41:42;;;;;;;23.25;2.92;;;2.90;99.90;;;;;;5089793;28;20048;-47
2022/01/21 09:44:12;;;;;;;24.58;2.33;;;2.50;99.90;;;;;;5089588;28;20062;-47
2022/01/21 09:46:42;;;;;;;15.80;2.45;;;2.50;99.90;;;;;;5089598;28;20551;-48
2022/01/21 09:49:26;;;;;;;22.67;4.30;;;2.60;99.90;;;;;;5089649;28;20032;-48
2022/01/21 09:52:05;;;;;;;19.45;1.92;;;2.70;99.90;;;;;;5093396;28;20044;-48
2022/01/21 09:54:34;;;;;;;29.08;3.13;;;2.80;99.90;;;;;;5093363;28;20040;-47
2022/01/21 09:57:01;;;;;;;26.15;2.65;;;2.80;99.90;;;;;;5093571;28;20398;-49
2022/01/21 09:59:30;;;;;;;17.25;2.30;;;2.90;99.90;;;;;;5093533;28;20077;-52
2022/01/21 10:02:02;;;;;;;28.30;2.47;;;2.90;99.90;;;;;;5093187;28;20528;-48
2022/01/21 10:04:34;;;;;;;16.65;2.90;;;3.00;99.90;;;;;;5074817;28;20143;-48
2022/01/21 10:07:02;;;;;;;30.57;3.83;;;4.20;99.90;;;;;;5074929;28;20046;-47
2022/01/21 10:09:29;;;;;;;21.52;2.80;;;3.00;99.90;;;;;;5092940;28;20119;-52
2022/01/21 10:11:56;;;;;;;14.20;2.38;;;3.10;99.90;;;;;;5093252;28;20035;-49
2022/01/21 10:14:24;;;;;;;23.42;3.45;;;3.10;99.90;;;;;;5092973;28;20043;-49
2022/01/21 10:16:51;;;;;;;22.85;1.80;;;3.00;99.90;;;;;;5092675;28;20101;-49
2022/01/21 10:19:24;;;;;;;22.17;2.80;;;3.20;99.90;;;;;;5092925;28;20551;-47
2022/01/21 10:22:08;;;;;;;24.15;3.17;;;2.20;99.90;;;;;;5075114;28;20072;-48
2022/01/21 10:24:36;;;;;;;26.10;3.13;;;3.30;99.90;;;;;;5093072;28;20039;-47
2022/01/21 10:27:02;;;;;;;17.63;2.45;;;3.40;99.90;;;;;;5092676;28;20044;-48
2022/01/21 10:29:40;;;;;;;23.58;3.33;;;3.40;99.90;;;;;;5092379;28;20036;-48
2022/01/21 10:32:07;;;;;;;29.05;2.97;;;3.50;99.90;;;;;;5092858;28;20081;-50
2022/01/21 10:34:41;;;;;;;21.83;1.98;;;3.50;99.90;;;;;;5092492;28;20054;-47
2022/01/21 10:37:30;;;;;;;25.55;3.70;;;3.50;99.90;;;;;;5092733;28;20040;-49
2022/01/21 10:40:04;;;;;;;18.55;2.10;;;3.60;99.90;;;;;;5051747;28;20052;-48
2022/01/21 10:42:30;;;;;;;24.80;2.20;;;3.60;99.90;;;;;;5052453;28;20048;-47
2022/01/21 10:44:57;;;;;;;29.02;3.88;;;3.60;99.90;;;;;;5034344;28;20037;-49
2022/01/21 10:47:38;;;;;;;19.73;3.10;;;3.60;99.90;;;;;;5052338;28;20429;-48
2022/01/21 10:50:11;;;;;;;24.45;2.65;;;3.60;99.90;;;;;;5052320;28;20119;-47
2022/01/21 10:52:51;;;;;;;23.67;3.15;;;3.60;99.90;;;;;;5052038;28;20364;-47
2022/01/21 10:55:38;;;;;;;19.52;1.83;;;3.70;99.90;;;;;;5052428;28;20045;-49
2022/01/21 10:58:13;;;;;;;23.88;2.45;;;3.80;99.90;;;;;;5052064;28;20041;-48
2022/01/21 11:01:01;;;;;;;19.45;2.30;;;3.90;99.90;;;;;;5051474;28;20100;-49
2022/01/21 11:03:29;;;;;;;18.55;2.42;;;4.50;99.90;;;;;;5051824;28;20080;-48
2022/01/21 11:06:14;;;;;;;17.17;2.33;;;4.20;99.90;;;;;;5051630;28;20483;-51
2022/01/21 11:08:40;;;;;;;17.83;2.38;;;4.30;99.90;;;;;;5051509;28;20536;-49
2022/01/21 11:11:06;;;;;;;18.42;3.42;;;4.40;99.90;;;;;;5051688;28;20037;-47
2022/01/21 11:13:33;;;;;;;26.38;3.53;;;4.40;99.90;;;;;;5051517;28;20072;-47
2022/01/21 11:16:09;;;;;;;19.02;2.95;;;4.40;99.90;;;;;;5051638;28;20045;-50
2022/01/21 11:18:54;;;;;;;17.45;1.52;;;4.40;99.90;;;;;;5051137;28;20061;-48
2022/01/21 11:21:20;;;;;;;18.90;2.67;;;4.50;99.90;;;;;;5051546;28;20037;-49
2022/01/21 11:23:46;;;;;;;20.80;1.77;;;4.50;99.90;;;;;;5051134;28;20487;-49
2022/01/21 11:26:15;;;;;;;18.80;1.95;;;5.60;99.90;;;;;;5051384;28;20064;-47
2022/01/21 11:28:49;;;;;;;20.92;2.35;;;5.00;99.90;;;;;;5050963;28;20104;-48
2022/01/21 11:31:18;;;;;;;22.33;2.75;;;4.50;99.90;;;;;;5051408;28;20387;-47
2022/01/21 11:33:44;;;;;;;24.55;2.38;;;4.50;99.90;;;;;;5051117;28;20108;-47
2022/01/21 11:36:10;;;;;;;19.65;2.75;;;4.50;99.90;;;;;;5051212;28;20125;-49
2022/01/21 11:38:41;;;;;;;24.10;2.80;;;4.60;99.90;;;;;;5073008;28;20123;-48
2022/01/21 11:41:08;;;;;;;16.67;2.07;;;4.60;99.90;;;;;;5091382;28;20075;-47
2022/01/21 11:43:36;;;;;;;26.33;2.75;;;4.80;99.90;;;;;;5091581;28;20043;-49
2022/01/21 11:46:19;;;;;;;24.90;2.75;;;4.70;99.90;;;;;;5072589;28;20075;-48
2022/01/21 11:48:56;;;;;;;36.60;3.45;;;4.80;99.90;;;;;;5091057;28;20097;-49
2022/01/21 11:51:37;;;;;;;21.95;3.05;;;4.90;99.90;;;;;;5091150;28;20509;-49
2022/01/21 11:54:07;;;;;;;28.00;3.05;;;5.00;99.90;;;;;;5091006;28;20040;-48
2022/01/21 11:56:46;;;;;;;29.55;3.50;;;5.00;99.90;;;;;;5091128;28;20028;-49
2022/01/21 11:59:36;;;;;;;39.88;3.67;;;5.10;99.90;;;;;;5091053;28;20052;-51
2022/01/21 12:02:26;;;;;;;34.35;5.47;;;5.20;99.90;;;;;;5091514;28;20083;-49
2022/01/21 12:05:06;;;;;;;25.25;4.05;;;5.20;99.90;;;;;;5090492;28;20548;-48
2022/01/21 12:07:36;;;;;;;34.80;4.32;;;5.30;99.90;;;;;;5090889;28;20552;-47
2022/01/21 12:10:09;;;;;;;30.27;2.45;;;5.40;99.90;;;;;;5090679;28;20044;-48
2022/01/21 12:12:59;;;;;;;23.85;3.20;;;5.40;99.90;;;;;;5090433;28;20036;-48
2022/01/21 12:15:29;;;;;;;26.73;3.97;;;5.50;99.90;;;;;;5090711;28;20123;-49
2022/01/21 12:18:08;;;;;;;18.38;3.65;;;5.50;99.90;;;;;;5090387;28;20164;-48
2022/01/21 12:20:36;;;;;;;19.27;2.70;;;5.50;99.90;;;;;;5090947;28;20044;-48
2022/01/21 12:23:15;;;;;;;27.30;2.50;;;6.10;99.90;;;;;;5090365;28;20045;-48
2022/01/21 12:26:17;;;;;;;25.77;2.22;;;6.60;99.90;;;;;;5090281;28;20101;-48
2022/01/21 12:28:52;;;;;;;22.50;2.95;;;5.70;99.90;;;;;;5090533;28;20036;-47
2022/01/21 12:31:20;;;;;;;23.35;2.97;;;6.90;99.90;;;;;;5090576;28;20440;-48
2022/01/21 12:33:53;;;;;;;18.38;1.55;;;5.80;99.90;;;;;;5090590;28;20263;-47
2022/01/21 12:36:22;;;;;;;15.48;1.88;;;5.80;99.90;;;;;;5090663;28;20052;-49
2022/01/21 12:41:16;;;;;;;17.67;1.52;;;5.90;99.90;;;;;;5090614;28;20044;-50
2022/01/21 12:43:48;;;;;;;19.70;2.17;;;5.70;99.90;;;;;;5090579;28;20097;-49
2022/01/21 12:46:23;;;;;;;24.55;2.50;;;5.90;99.90;;;;;;5090472;28;20036;-49
2022/01/21 12:48:51;;;;;;;22.15;3.88;;;5.90;99.90;;;;;;5090197;28;20047;-49
2022/01/21 12:56:51;;;;;;;17.10;2.72;;;5.90;99.90;;;;;;5090125;28;20047;-47
2022/01/21 12:59:28;;;;;;;17.08;1.08;;;5.90;99.90;;;;;;5090275;28;20513;-48
2022/01/21 13:01:59;;;;;;;14.77;1.15;;;5.90;99.90;;;;;;5090277;28;20036;-48
2022/01/21 13:04:46;;;;;;;14.57;1.83;;;7.00;99.90;;;;;;5073303;28;20052;-48
2022/01/21 13:07:36;;;;;;;15.00;2.83;;;5.90;99.90;;;;;;5090207;28;20398;-48
2022/01/21 13:10:28;;;;;;;10.82;2.60;;;5.90;99.90;;;;;;5089879;28;20488;-48
2022/01/21 13:15:39;;;;;;;14.30;1.13;;;5.90;99.90;;;;;;5090402;28;20055;-48
2022/01/21 13:18:17;;;;;;;15.45;2.08;;;5.90;99.90;;;;;;5068244;28;20055;-48
2022/01/21 13:20:49;;;;;;;15.60;1.25;;;5.90;99.90;;;;;;5070077;28;20455;-48
2022/01/21 13:26:39;;;;;;;;;;;5.90;99.90;;;;;;5072775;28;20060;-48
2022/01/21 13:29:08;;;;;;;13.65;1.13;;;5.90;99.90;;;;;;5073615;28;19927;-47
2022/01/21 13:31:45;;;;;;;11.85;0.75;;;5.90;99.90;;;;;;5073832;28;20032;-48
2022/01/21 13:34:14;;;;;;;15.75;0.70;;;5.90;99.90;;;;;;5073218;28;20561;-48
2022/01/21 13:36:58;;;;;;;14.77;0.80;;;5.90;99.90;;;;;;5073398;28;20494;-51
2022/01/21 13:39:36;;;;;;;13.25;0.93;;;6.00;99.90;;;;;;5071189;28;20198;-48
2022/01/21 13:42:23;;;;;;;20.60;1.35;;;6.00;99.90;;;;;;5073510;28;20414;-50
2022/01/21 13:44:52;;;;;;;15.77;1.13;;;7.10;99.90;;;;;;5073466;28;20037;-48
2022/01/21 13:47:40;;;;;;;16.50;1.35;;;6.10;99.90;;;;;;5073199;28;20055;-48
2022/01/21 13:50:17;;;;;;;26.65;1.27;;;6.10;99.90;;;;;;5071718;28;20390;-47
2022/01/21 13:52:52;;;;;;;17.92;1.05;;;6.10;99.90;;;;;;5073601;28;20410;-49
2022/01/21 13:55:41;;;;;;;18.20;1.70;;;6.10;99.90;;;;;;5073467;28;20076;-49
2022/01/21 13:58:32;;;;;;;21.60;1.42;;;6.10;99.90;;;;;;5073064;28;20056;-49
2022/01/21 14:01:13;;;;;;;16.92;1.50;;;6.10;99.90;;;;;;5072319;28;20056;-48